createdAt,value
2022-07-27T00:00:06.632Z,18.10
2022-07-27T00:01:09.420Z,18.13
2022-07-27T00:02:12.372Z,18.18
2022-07-27T00:03:15.093Z,18.22
2022-07-27T00:05:30.693Z,18.40
2022-07-27T00:06:34.106Z,18.33
2022-07-27T00:07:36.685Z,18.36
2022-07-27T00:08:39.999Z,18.40
2022-07-27T00:09:42.574Z,18.42
2022-07-27T00:10:45.572Z,18.41
2022-07-27T00:11:48.252Z,18.39
2022-07-27T00:12:51.046Z,18.35
2022-07-27T00:13:53.717Z,18.28
2022-07-27T00:14:56.434Z,18.21
2022-07-27T00:15:59.174Z,18.13
2022-07-27T00:17:02.096Z,18.06
2022-07-27T00:18:05.003Z,17.99
2022-07-27T00:19:09.350Z,17.94
2022-07-27T00:20:13.760Z,17.90
2022-07-27T00:21:16.448Z,17.87
2022-07-27T00:22:19.129Z,17.84
2022-07-27T00:23:21.825Z,17.81
2022-07-27T00:24:24.400Z,17.78
2022-07-27T00:25:27.178Z,17.77
2022-07-27T00:26:31.666Z,17.76
2022-07-27T00:27:34.437Z,17.76
2022-07-27T00:28:37.017Z,17.79
2022-07-27T00:29:39.601Z,17.81
2022-07-27T00:30:42.352Z,17.84
2022-07-27T00:31:45.216Z,17.86
2022-07-27T00:32:47.894Z,17.86
2022-07-27T00:33:50.599Z,17.89
2022-07-27T00:34:53.266Z,17.91
2022-07-27T00:35:55.863Z,17.98
2022-07-27T00:36:59.050Z,18.01
2022-07-27T00:38:01.751Z,18.05
2022-07-27T00:39:04.458Z,18.08
2022-07-27T00:40:08.566Z,18.11
2022-07-27T00:41:11.301Z,18.13
2022-07-27T00:42:14.088Z,18.17
2022-07-27T00:43:16.766Z,18.18
2022-07-27T00:44:26.712Z,18.19
2022-07-27T00:45:29.437Z,18.16
2022-07-27T00:46:33.766Z,18.10
2022-07-27T00:47:36.483Z,18.07
2022-07-27T00:48:39.117Z,18.05
2022-07-27T00:49:42.252Z,18.00
2022-07-27T00:50:46.042Z,17.96
2022-07-27T00:51:49.435Z,17.91
2022-07-27T00:52:52.316Z,17.87
2022-07-27T00:53:55.120Z,17.82
2022-07-27T00:54:58.105Z,17.76
2022-07-27T00:56:00.678Z,17.70
2022-07-27T00:58:20.371Z,17.69
2022-07-27T00:59:23.046Z,17.53
2022-07-27T01:00:27.454Z,17.48
2022-07-27T01:01:30.822Z,17.45
2022-07-27T01:02:33.746Z,17.43
2022-07-27T01:03:36.566Z,17.42
2022-07-27T01:04:41.058Z,17.42
2022-07-27T01:05:43.918Z,17.43
2022-07-27T01:06:47.232Z,17.46
2022-07-27T01:07:49.920Z,17.47
2022-07-27T01:08:52.686Z,17.49
2022-07-27T01:09:55.269Z,17.51
2022-07-27T01:10:58.576Z,17.53
2022-07-27T01:12:01.266Z,17.55
2022-07-27T01:13:03.974Z,17.57
2022-07-27T01:14:07.747Z,17.61
2022-07-27T01:15:10.808Z,17.65
2022-07-27T01:16:14.048Z,17.68
2022-07-27T01:17:16.727Z,17.72
2022-07-27T01:19:40.103Z,17.88
2022-07-27T01:20:43.035Z,17.82
2022-07-27T01:21:45.716Z,17.85
2022-07-27T01:22:48.540Z,17.88
2022-07-27T01:23:51.230Z,17.90
2022-07-27T01:24:53.806Z,17.91
2022-07-27T01:25:56.390Z,17.87
2022-07-27T01:27:03.073Z,17.84
2022-07-27T01:28:05.687Z,17.79
2022-07-27T01:29:08.488Z,17.76
2022-07-27T01:30:12.804Z,17.71
2022-07-27T01:31:15.458Z,17.68
2022-07-27T01:32:18.185Z,17.62
2022-07-27T01:33:20.989Z,17.57
2022-07-27T01:34:23.583Z,17.53
2022-07-27T01:35:26.170Z,17.46
2022-07-27T01:36:29.163Z,17.38
2022-07-27T01:37:31.843Z,17.31
2022-07-27T01:38:34.661Z,17.23
2022-07-27T01:39:37.244Z,17.16
2022-07-27T01:40:40.100Z,17.13
2022-07-27T01:41:42.899Z,17.12
2022-07-27T01:42:45.578Z,17.12
2022-07-27T01:43:48.335Z,17.12
2022-07-27T01:44:50.993Z,17.14
2022-07-27T01:45:53.709Z,17.17
2022-07-27T01:46:56.995Z,17.19
2022-07-27T01:47:59.592Z,17.21
2022-07-27T01:49:02.440Z,17.25
2022-07-27T01:50:06.189Z,17.31
2022-07-27T01:51:08.877Z,17.34
2022-07-27T01:52:11.557Z,17.37
2022-07-27T01:53:14.304Z,17.40
2022-07-27T01:54:16.897Z,17.42
2022-07-27T01:55:19.585Z,17.47
2022-07-27T01:56:24.166Z,17.51
2022-07-27T01:57:26.915Z,17.54
2022-07-27T01:58:29.482Z,17.57
2022-07-27T01:59:32.272Z,17.60
2022-07-27T02:00:35.299Z,17.64
2022-07-27T02:01:38.056Z,17.68
2022-07-27T02:02:41.166Z,17.69
2022-07-27T02:03:43.851Z,17.69
2022-07-27T02:04:46.443Z,17.72
2022-07-27T02:05:49.259Z,17.74
2022-07-27T02:06:52.123Z,17.77
2022-07-27T02:07:54.771Z,17.78
2022-07-27T02:08:57.332Z,17.77
2022-07-27T02:09:59.903Z,17.76
2022-07-27T02:11:02.732Z,17.77
2022-07-27T02:12:05.805Z,17.77
2022-07-27T02:13:15.372Z,17.79
2022-07-27T02:14:13.029Z,17.79
2022-07-27T02:15:17.890Z,17.77
2022-07-27T02:16:21.984Z,17.78
2022-07-27T02:17:26.518Z,17.81
2022-07-27T02:19:41.996Z,17.98
2022-07-27T02:20:45.729Z,17.88
2022-07-27T02:21:48.499Z,17.90
2022-07-27T02:22:51.235Z,17.90
2022-07-27T02:23:53.906Z,17.92
2022-07-27T02:24:56.468Z,17.94
2022-07-27T02:25:59.044Z,17.94
2022-07-27T02:27:01.846Z,17.88
2022-07-27T02:28:04.836Z,17.85
2022-07-27T02:29:07.752Z,17.84
2022-07-27T02:30:13.018Z,17.81
2022-07-27T02:31:15.628Z,17.79
2022-07-27T02:32:19.106Z,17.76
2022-07-27T02:33:21.760Z,17.74
2022-07-27T02:34:25.529Z,17.71
2022-07-27T02:35:28.496Z,17.66
2022-07-27T02:36:31.268Z,17.63
2022-07-27T02:37:33.953Z,17.60
2022-07-27T02:38:38.572Z,17.56
2022-07-27T02:39:41.363Z,17.55
2022-07-27T02:40:44.351Z,17.53
2022-07-27T02:41:47.126Z,17.51
2022-07-27T02:42:49.919Z,17.49
2022-07-27T02:43:52.499Z,17.49
2022-07-27T02:44:55.070Z,17.47
2022-07-27T02:45:57.902Z,17.46
2022-07-27T02:47:01.068Z,17.45
2022-07-27T02:48:03.983Z,17.43
2022-07-27T02:49:06.861Z,17.41
2022-07-27T02:50:10.340Z,17.41
2022-07-27T02:51:13.014Z,17.41
2022-07-27T02:52:15.597Z,17.41
2022-07-27T02:53:18.292Z,17.41
2022-07-27T02:54:21.458Z,17.41
2022-07-27T02:55:24.165Z,17.41
2022-07-27T02:56:27.239Z,17.42
2022-07-27T02:57:30.026Z,17.42
2022-07-27T02:58:32.693Z,17.43
2022-07-27T02:59:35.367Z,17.43
2022-07-27T03:00:38.063Z,17.43
2022-07-27T03:01:40.803Z,17.44
2022-07-27T03:02:48.562Z,17.45
2022-07-27T03:03:51.386Z,17.47
2022-07-27T03:04:53.963Z,17.51
2022-07-27T03:07:07.325Z,17.72
2022-07-27T03:08:10.016Z,17.67
2022-07-27T03:09:12.946Z,17.73
2022-07-27T03:10:16.726Z,17.81
2022-07-27T03:11:19.464Z,17.90
2022-07-27T03:12:22.131Z,18.00
2022-07-27T03:13:24.796Z,18.09
2022-07-27T03:14:28.005Z,18.16
2022-07-27T03:15:32.560Z,18.22
2022-07-27T03:16:35.310Z,18.26
2022-07-27T03:17:37.975Z,18.28
2022-07-27T03:18:40.809Z,18.29
2022-07-27T03:19:43.489Z,18.28
2022-07-27T03:20:46.582Z,18.28
2022-07-27T03:21:49.305Z,18.29
2022-07-27T03:22:52.081Z,18.28
2022-07-27T03:23:54.966Z,18.26
2022-07-27T03:24:57.670Z,18.23
2022-07-27T03:26:00.354Z,18.20
2022-07-27T03:27:03.319Z,18.17
2022-07-27T03:28:06.022Z,18.14
2022-07-27T03:29:08.974Z,18.13
2022-07-27T03:30:13.163Z,18.12
2022-07-27T03:31:15.812Z,18.12
2022-07-27T03:32:18.558Z,18.12
2022-07-27T03:33:21.247Z,18.12
2022-07-27T03:34:24.737Z,18.16
2022-07-27T03:35:27.452Z,18.16
2022-07-27T03:36:31.338Z,18.19
2022-07-27T03:37:34.284Z,18.19
2022-07-27T03:38:36.994Z,18.21
2022-07-27T03:39:39.571Z,18.22
2022-07-27T03:40:42.333Z,18.25
2022-07-27T03:41:45.006Z,18.27
2022-07-27T03:42:47.792Z,18.31
2022-07-27T03:43:50.587Z,18.34
2022-07-27T03:44:53.259Z,18.38
2022-07-27T03:45:56.471Z,18.41
2022-07-27T03:46:59.505Z,18.47
2022-07-27T03:48:02.243Z,18.53
2022-07-27T03:49:08.338Z,18.57
2022-07-27T03:50:10.197Z,18.64
2022-07-27T03:51:12.997Z,18.70
2022-07-27T03:52:17.796Z,18.75
2022-07-27T03:53:20.055Z,18.80
2022-07-27T03:54:22.633Z,18.86
2022-07-27T03:55:25.231Z,18.92
2022-07-27T03:56:28.109Z,18.98
2022-07-27T03:57:30.780Z,19.02
2022-07-27T03:58:33.682Z,19.08
2022-07-27T03:59:36.298Z,19.13
2022-07-27T04:01:49.952Z,19.35
2022-07-27T04:02:52.941Z,19.30
2022-07-27T04:03:55.779Z,19.36
2022-07-27T04:04:58.507Z,19.42
2022-07-27T04:06:01.228Z,19.48
2022-07-27T04:07:03.802Z,19.54
2022-07-27T04:08:06.377Z,19.60
2022-07-27T04:09:09.301Z,19.67
2022-07-27T04:10:12.779Z,19.72
2022-07-27T04:11:17.708Z,19.79
2022-07-27T04:12:21.372Z,19.85
2022-07-27T04:13:24.093Z,19.91
2022-07-27T04:14:28.084Z,19.98
2022-07-27T04:15:30.791Z,20.04
2022-07-27T04:16:36.282Z,20.08
2022-07-27T04:17:56.076Z,20.15
2022-07-27T04:18:43.004Z,20.21
2022-07-27T04:19:45.701Z,20.28
2022-07-27T04:20:48.499Z,20.32
2022-07-27T04:21:51.291Z,20.38
2022-07-27T04:22:54.760Z,20.43
2022-07-27T04:23:57.538Z,20.48
2022-07-27T04:25:00.540Z,20.51
2022-07-27T04:26:03.429Z,20.57
2022-07-27T04:27:06.002Z,20.62
2022-07-27T04:28:08.776Z,20.67
2022-07-27T04:29:11.745Z,20.72
2022-07-27T04:30:15.650Z,20.77
2022-07-27T04:31:18.444Z,20.83
2022-07-27T04:32:21.192Z,20.86
2022-07-27T04:33:23.785Z,20.90
2022-07-27T04:34:26.373Z,20.96
2022-07-27T04:35:28.935Z,21.02
2022-07-27T04:36:31.852Z,21.07
2022-07-27T04:37:34.961Z,21.13
2022-07-27T04:38:37.626Z,21.20
2022-07-27T04:39:40.213Z,21.25
2022-07-27T04:40:42.992Z,21.29
2022-07-27T04:41:45.670Z,21.34
2022-07-27T04:42:48.752Z,21.41
2022-07-27T04:43:52.722Z,21.45
2022-07-27T04:44:55.296Z,21.48
2022-07-27T04:45:57.875Z,21.50
2022-07-27T04:47:00.855Z,21.54
2022-07-27T04:48:07.594Z,21.57
2022-07-27T04:49:10.485Z,21.63
2022-07-27T04:50:15.397Z,21.67
2022-07-27T04:51:18.072Z,21.73
2022-07-27T04:53:31.206Z,21.95
2022-07-27T04:54:33.798Z,21.91
2022-07-27T04:55:37.070Z,21.98
2022-07-27T04:56:39.861Z,22.03
2022-07-27T04:57:42.570Z,22.08
2022-07-27T04:58:45.135Z,22.14
2022-07-27T04:59:47.911Z,22.19
2022-07-27T05:00:50.885Z,22.24
2022-07-27T05:01:53.729Z,22.27
2022-07-27T05:02:58.289Z,22.29
2022-07-27T05:04:00.998Z,22.31
2022-07-27T05:05:04.521Z,22.35
2022-07-27T05:06:07.419Z,22.38
2022-07-27T05:07:10.237Z,22.44
2022-07-27T05:08:12.828Z,22.49
2022-07-27T05:09:15.652Z,22.54
2022-07-27T05:10:21.998Z,22.60
2022-07-27T05:11:24.689Z,22.65
2022-07-27T05:12:27.273Z,22.71
2022-07-27T05:13:30.004Z,22.78
2022-07-27T05:14:32.676Z,22.83
2022-07-27T05:15:54.814Z,22.90
2022-07-27T05:16:40.204Z,22.97
2022-07-27T05:17:42.887Z,23.02
2022-07-27T05:18:45.443Z,23.07
2022-07-27T05:19:48.444Z,23.11
2022-07-27T05:20:51.550Z,23.14
2022-07-27T05:21:54.441Z,23.18
2022-07-27T05:22:57.422Z,23.25
2022-07-27T05:24:00.107Z,23.29
2022-07-27T05:25:03.073Z,23.33
2022-07-27T05:26:06.165Z,23.35
2022-07-27T05:27:08.745Z,23.39
2022-07-27T05:28:11.606Z,23.43
2022-07-27T05:29:14.847Z,23.49
2022-07-27T05:30:20.046Z,23.53
2022-07-27T05:31:22.807Z,23.58
2022-07-27T05:32:27.368Z,23.61
2022-07-27T05:33:31.105Z,23.64
2022-07-27T05:34:33.796Z,23.68
2022-07-27T05:35:36.404Z,23.72
2022-07-27T05:36:39.179Z,23.75
2022-07-27T05:37:41.854Z,23.80
2022-07-27T05:38:44.551Z,23.79
2022-07-27T05:39:47.339Z,23.83
2022-07-27T05:40:50.233Z,23.84
2022-07-27T05:41:53.026Z,23.84
2022-07-27T05:42:56.113Z,23.87
2022-07-27T05:43:58.814Z,23.88
2022-07-27T05:45:01.627Z,23.89
2022-07-27T05:46:04.524Z,23.92
2022-07-27T05:47:07.605Z,23.97
2022-07-27T05:48:12.109Z,24.00
2022-07-27T05:49:15.317Z,24.04
2022-07-27T05:50:18.799Z,24.09
2022-07-27T05:51:21.469Z,24.13
2022-07-27T05:52:24.166Z,24.18
2022-07-27T05:53:26.760Z,24.21
2022-07-27T05:54:29.535Z,24.24
2022-07-27T05:55:33.654Z,24.27
2022-07-27T05:56:36.564Z,24.32
2022-07-27T05:57:39.489Z,24.34
2022-07-27T05:58:42.393Z,24.35
2022-07-27T05:59:45.065Z,24.38
2022-07-27T06:00:48.066Z,24.42
2022-07-27T06:01:50.875Z,24.42
2022-07-27T06:02:54.687Z,24.44
2022-07-27T06:03:57.443Z,24.47
2022-07-27T06:05:00.156Z,24.50
2022-07-27T06:07:13.983Z,24.64
2022-07-27T06:08:16.736Z,24.54
2022-07-27T06:09:19.448Z,24.55
2022-07-27T06:10:22.978Z,24.59
2022-07-27T06:11:25.674Z,24.64
2022-07-27T06:12:30.202Z,24.67
2022-07-27T06:13:32.975Z,24.72
2022-07-27T06:14:35.715Z,24.75
2022-07-27T06:15:38.373Z,24.77
2022-07-27T06:16:41.415Z,24.83
2022-07-27T06:17:44.327Z,24.87
2022-07-27T06:18:46.906Z,24.90
2022-07-27T06:19:49.878Z,24.93
2022-07-27T06:20:52.782Z,24.97
2022-07-27T06:21:55.465Z,25.01
2022-07-27T06:22:59.025Z,25.07
2022-07-27T06:24:01.708Z,25.13
2022-07-27T06:25:05.286Z,25.17
2022-07-27T06:26:08.793Z,25.22
2022-07-27T06:27:11.537Z,25.26
2022-07-27T06:28:14.143Z,25.28
2022-07-27T06:29:16.903Z,25.29
2022-07-27T06:30:21.419Z,25.31
2022-07-27T06:31:27.607Z,25.33
2022-07-27T06:32:32.115Z,25.36
2022-07-27T06:33:36.524Z,25.44
2022-07-27T06:34:42.469Z,25.46
2022-07-27T06:35:43.946Z,25.54
2022-07-27T06:36:48.266Z,25.58
2022-07-27T06:37:50.947Z,25.62
2022-07-27T06:38:53.672Z,25.64
2022-07-27T06:39:59.334Z,25.71
2022-07-27T06:41:02.311Z,25.78
2022-07-27T06:42:04.992Z,25.86
2022-07-27T06:43:07.693Z,25.91
2022-07-27T06:44:10.370Z,25.97
2022-07-27T06:45:13.027Z,26.01
2022-07-27T06:46:17.927Z,26.06
2022-07-27T06:47:20.653Z,26.10
2022-07-27T06:48:23.651Z,26.15
2022-07-27T06:49:26.410Z,26.22
2022-07-27T06:50:30.725Z,26.25
2022-07-27T06:51:33.808Z,26.25
2022-07-27T06:52:38.420Z,26.27
2022-07-27T06:53:41.194Z,26.30
2022-07-27T06:54:43.777Z,26.33
2022-07-27T06:55:46.563Z,26.37
2022-07-27T06:56:49.365Z,26.38
2022-07-27T06:57:52.068Z,26.38
2022-07-27T06:58:54.655Z,26.36
2022-07-27T06:59:57.265Z,26.38
2022-07-27T07:01:00.395Z,26.41
2022-07-27T07:02:03.947Z,26.47
2022-07-27T07:03:06.912Z,26.50
2022-07-27T07:04:09.760Z,26.52
2022-07-27T07:05:12.502Z,26.54
2022-07-27T07:06:17.191Z,26.56
2022-07-27T07:07:19.932Z,26.60
2022-07-27T07:08:22.628Z,26.61
2022-07-27T07:09:25.295Z,26.64
2022-07-27T07:10:29.819Z,26.67
2022-07-27T07:11:32.507Z,26.71
2022-07-27T07:12:36.650Z,26.76
2022-07-27T07:13:43.238Z,26.78
2022-07-27T07:14:44.915Z,26.79
2022-07-27T07:15:47.667Z,26.80
2022-07-27T07:18:03.576Z,26.88
2022-07-27T07:19:06.884Z,26.75
2022-07-27T07:20:11.032Z,26.76
2022-07-27T07:21:15.435Z,26.73
2022-07-27T07:22:18.168Z,26.72
2022-07-27T07:23:20.925Z,26.69
2022-07-27T07:24:23.590Z,26.67
2022-07-27T07:25:27.522Z,26.70
2022-07-27T07:26:31.446Z,26.72
2022-07-27T07:27:34.745Z,26.73
2022-07-27T07:28:37.441Z,26.72
2022-07-27T07:29:40.192Z,26.71
2022-07-27T07:30:43.603Z,26.73
2022-07-27T07:31:46.521Z,26.72
2022-07-27T07:32:49.360Z,26.71
2022-07-27T07:33:52.234Z,26.68
2022-07-27T07:34:54.904Z,26.68
2022-07-27T07:36:12.588Z,26.67
2022-07-27T07:37:02.499Z,26.67
2022-07-27T07:38:05.176Z,26.68
2022-07-27T07:39:07.942Z,26.71
2022-07-27T07:41:15.882Z,26.84
2022-07-27T07:42:18.547Z,26.89
2022-07-27T07:43:21.526Z,26.88
2022-07-27T07:44:25.122Z,26.91
2022-07-27T07:45:29.014Z,26.91
2022-07-27T07:46:32.426Z,26.89
2022-07-27T07:47:35.230Z,26.86
2022-07-27T07:48:37.943Z,26.87
2022-07-27T07:49:40.822Z,26.86
2022-07-27T07:50:43.769Z,26.90
2022-07-27T07:51:46.555Z,26.89
2022-07-27T07:52:50.447Z,26.86
2022-07-27T07:53:53.210Z,26.89
2022-07-27T07:54:55.909Z,26.94
2022-07-27T07:55:58.644Z,26.99
2022-07-27T07:57:01.839Z,27.08
2022-07-27T07:58:04.533Z,27.14
2022-07-27T07:59:07.224Z,27.13
2022-07-27T08:00:12.829Z,27.17
2022-07-27T08:01:15.600Z,27.20
2022-07-27T08:02:18.459Z,27.27
2022-07-27T08:03:21.513Z,27.31
2022-07-27T08:04:24.420Z,27.37
2022-07-27T08:05:27.228Z,27.42
2022-07-27T08:06:31.039Z,27.42
2022-07-27T08:07:33.803Z,27.38
2022-07-27T08:08:36.494Z,27.34
2022-07-27T08:09:39.078Z,27.29
2022-07-27T08:10:41.872Z,27.27
2022-07-27T08:11:44.657Z,27.31
2022-07-27T08:12:50.050Z,27.32
2022-07-27T08:13:52.975Z,27.38
2022-07-27T08:14:55.554Z,27.43
2022-07-27T08:15:58.390Z,27.43
2022-07-27T08:17:01.551Z,27.42
2022-07-27T08:18:04.836Z,27.41
2022-07-27T08:19:09.513Z,27.41
2022-07-27T08:20:14.029Z,27.41
2022-07-27T08:21:16.883Z,27.42
2022-07-27T08:22:19.717Z,27.39
2022-07-27T08:23:23.121Z,27.36
2022-07-27T08:24:25.998Z,27.34
2022-07-27T08:26:39.448Z,27.56
2022-07-27T08:27:42.138Z,27.55
2022-07-27T08:28:44.813Z,27.59
2022-07-27T08:29:47.999Z,27.64
2022-07-27T08:30:52.891Z,27.64
2022-07-27T08:31:57.167Z,27.61
2022-07-27T08:33:00.902Z,27.57
2022-07-27T08:34:03.774Z,27.56
2022-07-27T08:35:07.505Z,27.57
2022-07-27T08:36:10.912Z,27.61
2022-07-27T08:37:15.793Z,27.67
2022-07-27T08:38:18.191Z,27.75
2022-07-27T08:40:05.794Z,27.83
2022-07-27T08:40:39.757Z,27.86
2022-07-27T08:41:33.726Z,27.90
2022-07-27T08:42:36.408Z,27.94
2022-07-27T08:43:41.503Z,27.93
2022-07-27T08:44:44.362Z,27.91
2022-07-27T08:47:03.841Z,28.10
2022-07-27T08:48:06.812Z,28.02
2022-07-27T08:49:09.750Z,28.06
2022-07-27T08:50:14.874Z,28.05
2022-07-27T08:51:17.488Z,28.06
2022-07-27T08:52:20.172Z,28.06
2022-07-27T08:53:22.853Z,28.08
2022-07-27T08:54:25.461Z,28.12
2022-07-27T08:55:28.841Z,28.15
2022-07-27T08:56:32.436Z,28.15
2022-07-27T08:57:35.113Z,28.19
2022-07-27T08:58:37.900Z,28.22
2022-07-27T08:59:40.564Z,28.16
2022-07-27T09:00:47.194Z,28.12
2022-07-27T09:01:50.859Z,28.11
2022-07-27T09:02:53.857Z,28.17
2022-07-27T09:03:56.826Z,28.17
2022-07-27T09:04:59.616Z,28.20
2022-07-27T09:06:02.394Z,28.25
2022-07-27T09:07:05.080Z,28.27
2022-07-27T09:09:27.152Z,28.45
2022-07-27T09:10:32.921Z,28.42
2022-07-27T09:11:35.664Z,28.49
2022-07-27T09:12:38.276Z,28.56
2022-07-27T09:13:41.788Z,28.62
2022-07-27T09:14:47.551Z,28.66
2022-07-27T09:18:30.631Z,28.78
2022-07-27T09:19:37.234Z,28.81
2022-07-27T09:20:40.347Z,28.80
2022-07-27T09:21:43.053Z,28.72
2022-07-27T09:22:50.641Z,28.67
2022-07-27T09:26:34.156Z,28.51
2022-07-27T09:27:37.211Z,28.47
2022-07-27T09:28:40.107Z,28.44
2022-07-27T09:29:42.787Z,28.40
2022-07-27T09:30:45.995Z,28.31
2022-07-27T09:31:50.358Z,28.20
2022-07-27T09:34:11.627Z,28.21
2022-07-27T09:35:19.524Z,28.04
2022-07-27T09:36:24.158Z,27.92
2022-07-27T09:37:27.284Z,27.82
2022-07-27T09:38:29.972Z,27.76
2022-07-27T09:39:32.750Z,27.67
2022-07-27T09:40:36.030Z,27.56
2022-07-27T09:41:53.614Z,27.58
2022-07-27T09:45:55.464Z,27.80
2022-07-27T09:46:58.406Z,27.76
2022-07-27T09:48:14.585Z,27.84
2022-07-27T09:49:29.029Z,27.92
2022-07-27T09:50:35.787Z,28.00
2022-07-27T09:51:59.569Z,28.08
2022-07-27T09:52:49.250Z,28.10
2022-07-27T09:53:52.748Z,28.11
2022-07-27T09:56:15.223Z,28.28
2022-07-27T09:57:18.041Z,28.18
2022-07-27T09:58:20.716Z,28.21
2022-07-27T09:59:23.414Z,28.28
2022-07-27T10:00:29.046Z,28.33
2022-07-27T10:01:33.329Z,28.37
2022-07-27T10:02:37.362Z,28.40
2022-07-27T10:03:40.972Z,28.32
2022-07-27T10:04:43.744Z,28.35
2022-07-27T10:05:46.922Z,28.39
2022-07-27T10:07:10.697Z,28.42
2022-07-27T10:07:54.824Z,28.45
2022-07-27T10:08:58.297Z,28.53
2022-07-27T10:10:01.634Z,28.62
2022-07-27T10:11:05.059Z,28.67
2022-07-27T10:12:10.254Z,28.77
2022-07-27T10:13:12.945Z,28.87
2022-07-27T10:14:16.066Z,28.93
2022-07-27T10:15:19.050Z,28.97
2022-07-27T10:16:24.486Z,28.95
2022-07-27T10:17:27.274Z,29.00
2022-07-27T10:18:43.845Z,29.02
2022-07-27T10:19:47.817Z,29.04
2022-07-27T10:20:50.588Z,29.06
2022-07-27T10:21:53.290Z,29.06
2022-07-27T10:22:57.366Z,29.05
2022-07-27T10:24:05.731Z,29.04
2022-07-27T10:25:08.915Z,29.05
2022-07-27T10:27:33.859Z,29.15
2022-07-27T10:28:48.202Z,28.98
2022-07-27T10:29:50.911Z,28.89
2022-07-27T10:30:54.705Z,28.86
2022-07-27T10:31:59.396Z,28.86
2022-07-27T10:33:16.230Z,28.87
2022-07-27T10:34:38.369Z,28.88
2022-07-27T10:35:41.225Z,28.86
2022-07-27T10:36:47.416Z,28.83
2022-07-27T10:39:15.453Z,29.00
2022-07-27T10:40:19.194Z,28.91
2022-07-27T10:41:26.720Z,28.90
2022-07-27T10:42:29.844Z,28.89
2022-07-27T10:43:32.889Z,28.87
2022-07-27T10:44:35.554Z,28.87
2022-07-27T10:46:53.866Z,28.97
2022-07-27T10:47:56.714Z,28.83
2022-07-27T10:49:03.164Z,28.80
2022-07-27T10:50:18.906Z,28.77
2022-07-27T10:51:35.638Z,28.74
2022-07-27T10:54:16.039Z,28.79
2022-07-27T10:55:13.461Z,28.54
2022-07-27T10:56:17.400Z,28.47
2022-07-27T10:57:26.653Z,28.38
2022-07-27T10:58:34.311Z,28.22
2022-07-27T11:00:08.494Z,28.19
2022-07-27T11:00:54.532Z,28.03
2022-07-27T11:01:56.321Z,27.96
2022-07-27T11:02:59.171Z,27.88
2022-07-27T11:04:08.744Z,27.83
2022-07-27T11:05:32.785Z,27.72
2022-07-27T11:06:33.090Z,27.68
2022-07-27T11:07:42.262Z,27.69
2022-07-27T11:08:47.022Z,27.75
2022-07-27T11:10:48.408Z,27.72
2022-07-27T11:11:51.308Z,27.67
2022-07-27T11:12:53.965Z,27.64
2022-07-27T11:13:57.758Z,27.66
2022-07-27T11:15:00.455Z,27.67
2022-07-27T11:16:23.438Z,27.68
2022-07-27T11:17:49.447Z,27.68
2022-07-27T11:18:28.337Z,27.65
2022-07-27T11:19:31.269Z,27.61
2022-07-27T11:20:35.763Z,27.62
2022-07-27T11:21:38.546Z,27.57
2022-07-27T11:25:00.161Z,27.60
2022-07-27T11:26:02.963Z,27.48
2022-07-27T11:27:17.031Z,27.47
2022-07-27T11:28:10.540Z,27.45
2022-07-27T11:29:15.406Z,27.40
2022-07-27T11:30:23.894Z,27.37
2022-07-27T11:31:52.697Z,27.31
2022-07-27T11:32:34.576Z,27.27
2022-07-27T11:33:38.019Z,27.20
2022-07-27T11:34:40.774Z,27.12
2022-07-27T11:35:53.581Z,26.90
2022-07-27T11:36:56.403Z,26.80
2022-07-27T11:38:00.510Z,26.70
2022-07-27T11:39:03.834Z,26.58
2022-07-27T11:40:48.105Z,26.39
2022-07-27T11:41:48.047Z,26.28
2022-07-27T11:42:39.191Z,26.14
2022-07-27T11:43:45.648Z,25.99
2022-07-27T11:44:47.145Z,25.91
2022-07-27T11:45:50.019Z,25.80
2022-07-27T11:46:56.330Z,25.66
2022-07-27T11:47:58.718Z,25.46
2022-07-27T11:49:07.130Z,25.33
2022-07-27T11:50:09.938Z,25.28
2022-07-27T11:51:15.366Z,25.25
2022-07-27T11:52:18.218Z,25.24
2022-07-27T11:53:20.943Z,25.21
2022-07-27T11:54:25.453Z,25.19
2022-07-27T11:55:28.157Z,25.14
2022-07-27T11:57:57.395Z,25.19
2022-07-27T11:59:06.084Z,25.06
2022-07-27T12:00:10.918Z,25.05
2022-07-27T12:01:28.499Z,25.03
2022-07-27T12:02:31.301Z,25.02
2022-07-27T12:03:47.182Z,25.04
2022-07-27T12:04:40.515Z,25.04
2022-07-27T12:05:52.178Z,25.07
2022-07-27T12:06:56.694Z,25.08
2022-07-27T12:07:59.424Z,25.10
2022-07-27T12:09:03.193Z,25.12
2022-07-27T12:10:06.922Z,25.12
2022-07-27T12:11:09.687Z,25.10
2022-07-27T12:13:33.852Z,25.24
2022-07-27T12:14:39.554Z,25.17
2022-07-27T12:15:46.381Z,25.20
2022-07-27T12:16:47.335Z,25.23
2022-07-27T12:17:56.631Z,25.20
2022-07-27T12:18:59.534Z,25.16
2022-07-27T12:20:08.291Z,25.14
2022-07-27T12:21:17.974Z,25.15
2022-07-27T12:22:29.947Z,25.15
2022-07-27T12:23:32.657Z,25.16
2022-07-27T12:24:37.541Z,25.20
2022-07-27T12:25:40.267Z,25.24
2022-07-27T12:26:43.258Z,25.27
2022-07-27T12:28:00.208Z,25.29
2022-07-27T12:29:07.711Z,25.28
2022-07-27T12:30:12.561Z,25.30
2022-07-27T12:31:16.398Z,25.32
2022-07-27T12:32:19.554Z,25.32
2022-07-27T12:33:28.742Z,25.35
2022-07-27T12:34:35.600Z,25.36
2022-07-27T12:36:55.155Z,25.46
2022-07-27T12:38:03.837Z,25.38
2022-07-27T12:39:06.556Z,25.37
2022-07-27T12:40:17.465Z,25.38
2022-07-27T12:41:30.797Z,25.39
2022-07-27T12:42:34.536Z,25.39
2022-07-27T12:43:37.639Z,25.39
2022-07-27T12:44:42.051Z,25.41
2022-07-27T12:45:45.305Z,25.42
2022-07-27T12:46:57.637Z,25.43
2022-07-27T12:49:24.986Z,25.52
2022-07-27T12:50:29.688Z,25.40
2022-07-27T12:52:48.400Z,25.48
2022-07-27T12:53:52.015Z,25.34
2022-07-27T12:54:54.990Z,25.29
2022-07-27T12:56:00.382Z,25.27
2022-07-27T12:57:03.552Z,25.26
2022-07-27T12:58:10.563Z,25.26
2022-07-27T12:59:13.730Z,25.27
2022-07-27T13:00:18.403Z,25.27
2022-07-27T13:01:21.140Z,25.27
2022-07-27T13:02:23.896Z,25.27
2022-07-27T13:03:27.271Z,25.24
2022-07-27T13:04:29.958Z,25.24
2022-07-27T13:05:32.965Z,25.24
2022-07-27T13:06:36.210Z,25.25
2022-07-27T13:07:39.799Z,25.27
2022-07-27T13:08:42.548Z,25.28
2022-07-27T13:10:03.562Z,25.29
2022-07-27T13:10:50.165Z,25.31
2022-07-27T13:11:56.995Z,25.31
2022-07-27T13:12:57.462Z,25.28
2022-07-27T13:14:00.081Z,25.28
2022-07-27T13:15:07.095Z,25.27
2022-07-27T13:16:10.782Z,25.25
2022-07-27T13:17:13.685Z,25.22
2022-07-27T13:18:21.254Z,25.18
2022-07-27T13:19:21.064Z,25.15
2022-07-27T13:21:34.972Z,25.27
2022-07-27T13:22:39.267Z,25.15
2022-07-27T13:23:42.067Z,25.13
2022-07-27T13:24:44.646Z,25.12
2022-07-27T13:25:48.441Z,25.09
2022-07-27T13:26:51.331Z,25.08
2022-07-27T13:27:54.098Z,25.05
2022-07-27T13:28:56.893Z,25.05
2022-07-27T13:29:59.662Z,25.06
2022-07-27T13:31:02.643Z,25.05
2022-07-27T13:32:06.369Z,25.03
2022-07-27T13:33:09.135Z,25.04
2022-07-27T13:34:11.821Z,25.04
2022-07-27T13:35:14.809Z,25.03
2022-07-27T13:36:18.125Z,24.96
2022-07-27T13:37:20.863Z,24.95
2022-07-27T13:38:23.541Z,24.94
2022-07-27T13:39:26.338Z,24.91
2022-07-27T13:40:30.582Z,24.86
2022-07-27T13:41:33.562Z,24.88
2022-07-27T13:42:36.357Z,24.81
2022-07-27T13:43:39.145Z,24.80
2022-07-27T13:45:03.879Z,24.74
2022-07-27T13:46:57.318Z,24.71
2022-07-27T13:48:00.038Z,24.57
2022-07-27T13:49:02.760Z,24.53
2022-07-27T13:50:06.896Z,24.54
2022-07-27T13:51:09.662Z,24.47
2022-07-27T13:52:12.331Z,24.47
2022-07-27T13:53:15.762Z,24.42
2022-07-27T13:54:18.718Z,24.40
2022-07-27T13:55:24.857Z,24.40
2022-07-27T13:56:26.209Z,24.40
2022-07-27T13:57:28.998Z,24.36
2022-07-27T13:58:31.693Z,24.33
2022-07-27T13:59:34.407Z,24.29
2022-07-27T14:00:37.643Z,24.22
2022-07-27T14:01:40.972Z,24.17
2022-07-27T14:02:45.331Z,24.06
2022-07-27T14:03:48.463Z,24.06
2022-07-27T14:04:51.346Z,24.00
2022-07-27T14:05:54.030Z,23.95
2022-07-27T14:06:58.182Z,23.92
2022-07-27T14:08:00.882Z,23.85
2022-07-27T14:09:04.471Z,23.75
2022-07-27T14:10:08.295Z,23.73
2022-07-27T14:11:10.970Z,23.76
2022-07-27T14:12:13.749Z,23.77
2022-07-27T14:13:16.563Z,23.79
2022-07-27T14:14:21.772Z,23.82
2022-07-27T14:15:24.041Z,23.83
2022-07-27T14:16:27.408Z,23.80
2022-07-27T14:17:30.227Z,23.76
2022-07-27T14:18:33.015Z,23.73
2022-07-27T14:19:36.071Z,23.68
2022-07-27T14:20:40.074Z,23.60
2022-07-27T14:21:43.067Z,23.53
2022-07-27T14:22:45.773Z,23.45
2022-07-27T14:23:48.567Z,23.37
2022-07-27T14:24:51.227Z,23.29